Time;durP1;ratioP1;P1;durP2;ratioP2;P2;SDS_P1;SDS_P2;PMS_P1;PMS_P2;Temp;Humidity;BMP_temperature;BMP_pressure;BME280_temperature;BME280_humidity;BME280_pressure;Samples;Min_cycle;Max_cycle;Signal;HPM_P1;HPM_P2
2022/03/17 00:02:16;;;;;;;24.50;19.03;;;;;;;11.66;68.03;101489.56;5093247;28;20209;-66
2022/03/17 00:04:43;;;;;;;24.20;18.57;;;;;;;11.63;68.31;101500.13;5093367;28;20605;-66
2022/03/17 00:07:09;;;;;;;22.73;18.53;;;;;;;11.67;68.02;101503.53;5093140;28;20243;-66
2022/03/17 00:09:36;;;;;;;19.57;17.57;;;;;;;11.60;68.24;101500.25;5093406;28;20223;-67
2022/03/17 00:12:03;;;;;;;19.37;17.37;;;;;;;11.66;67.78;101505.31;5093602;28;20213;-68
2022/03/17 00:14:29;;;;;;;18.63;16.90;;;;;;;11.71;67.97;101492.00;5093550;28;20194;-68
2022/03/17 00:16:56;;;;;;;18.90;17.03;;;;;;;11.70;68.13;101499.03;5093633;28;20174;-68
2022/03/17 00:19:22;;;;;;;20.10;18.10;;;;;;;11.70;68.09;101506.91;5092947;28;20213;-68
2022/03/17 00:21:49;;;;;;;19.97;18.00;;;;;;;11.82;67.71;101506.53;5092710;28;20270;-69
2022/03/17 00:24:17;;;;;;;17.97;16.07;;;;;;;11.70;68.15;101511.28;5093188;28;20194;-68
2022/03/17 00:26:44;;;;;;;23.03;18.67;;;;;;;11.63;68.31;101518.50;5093448;28;20178;-68
2022/03/17 00:29:11;;;;;;;21.33;17.50;;;;;;;11.64;68.09;101511.47;5092906;28;20243;-68
2022/03/17 00:31:39;;;;;;;19.67;17.60;;;;;;;11.80;67.85;101510.97;5092783;28;20194;-67
2022/03/17 00:34:07;;;;;;;21.23;18.67;;;;;;;11.89;67.57;101519.44;5093115;28;20189;-66
2022/03/17 00:36:34;;;;;;;21.53;18.70;;;;;;;11.81;68.27;101507.44;5092859;28;20228;-67
2022/03/17 00:39:04;;;;;;;20.30;18.23;;;;;;;11.77;68.54;101515.41;5092793;28;20186;-66
2022/03/17 00:41:31;;;;;;;19.80;17.70;;;;;;;11.80;68.67;101513.59;5092685;28;20181;-68
2022/03/17 00:43:57;;;;;;;21.03;18.50;;;;;;;11.71;68.42;101511.22;5093056;28;20644;-69
2022/03/17 00:46:24;;;;;;;20.27;18.10;;;;;;;11.84;68.32;101512.56;5092790;28;20246;-68
2022/03/17 00:48:51;;;;;;;20.87;17.93;;;;;;;11.91;67.75;101510.59;5093057;28;20174;-69
2022/03/17 00:51:18;;;;;;;19.83;17.73;;;;;;;11.90;67.19;101514.13;5094530;28;20610;-68
2022/03/17 00:53:46;;;;;;;18.73;16.77;;;;;;;11.86;67.48;101515.16;5096369;28;20209;-69
2022/03/17 00:56:13;;;;;;;21.70;19.00;;;;;;;11.89;66.99;101519.44;5096656;28;20553;-69
2022/03/17 00:58:39;;;;;;;22.93;18.77;;;;;;;11.93;67.49;101510.53;5096643;28;20189;-69
2022/03/17 01:01:08;;;;;;;21.30;17.50;;;;;;;11.88;67.47;101513.34;5096302;28;20190;-69
2022/03/17 01:03:34;;;;;;;19.13;16.73;;;;;;;11.85;67.37;101516.06;5096962;28;20267;-69
2022/03/17 01:06:01;;;;;;;22.97;18.37;;;;;;;11.83;67.37;101516.09;5096229;28;20570;-69
2022/03/17 01:08:28;;;;;;;23.37;20.70;;;;;;;11.78;67.55;101507.50;5096451;28;20190;-68
2022/03/17 01:10:55;;;;;;;21.87;19.60;;;;;;;11.88;67.37;101509.88;5096110;28;20190;-68
2022/03/17 01:13:21;;;;;;;20.73;18.30;;;;;;;11.85;67.23;101501.16;5096022;28;20267;-69
2022/03/17 01:15:48;;;;;;;29.83;18.73;;;;;;;11.76;67.48;101490.97;5096025;28;20227;-68
2022/03/17 01:18:14;;;;;;;21.27;18.97;;;;;;;11.81;67.31;101498.72;5095998;28;20195;-68
2022/03/17 01:20:41;;;;;;;27.10;19.77;;;;;;;11.76;67.67;101490.09;5095921;28;20194;-68
2022/03/17 01:23:08;;;;;;;21.57;19.27;;;;;;;11.75;67.62;101485.75;5095797;28;20213;-68
2022/03/17 01:25:35;;;;;;;19.30;17.23;;;;;;;11.75;67.79;101486.63;5096163;28;20220;-69
2022/03/17 01:28:01;;;;;;;19.47;17.37;;;;;;;11.69;67.86;101473.69;5095799;28;20196;-69
2022/03/17 01:30:28;;;;;;;22.87;18.93;;;;;;;11.64;67.96;101470.38;5095726;28;20190;-69
2022/03/17 01:32:54;;;;;;;23.00;18.80;;;;;;;11.66;68.18;101476.44;5095909;28;20607;-69
2022/03/17 01:35:21;;;;;;;25.90;18.30;;;;;;;11.70;67.93;101470.16;5096207;28;20214;-68
2022/03/17 01:37:47;;;;;;;20.37;18.33;;;;;;;11.71;68.11;101471.03;5095614;28;20189;-68
2022/03/17 01:40:14;;;;;;;21.37;19.03;;;;;;;11.77;67.78;101466.44;5095817;28;20639;-68
2022/03/17 01:42:41;;;;;;;21.67;18.43;;;;;;;11.67;67.91;101470.28;5095525;28;20202;-68
2022/03/17 01:45:08;;;;;;;23.67;20.07;;;;;;;11.69;67.79;101468.47;5095744;28;20189;-68
2022/03/17 01:47:36;;;;;;;28.47;19.17;;;;;;;11.86;66.70;101473.19;5095700;28;20240;-68
2022/03/17 01:50:13;;;;;;;22.40;17.87;;;;;;;11.67;67.64;101465.03;5095644;28;20235;-68
2022/03/17 01:52:40;;;;;;;20.53;18.20;;;;;;;11.63;67.93;101463.41;5095767;28;20205;-69
2022/03/17 01:55:09;;;;;;;24.37;18.40;;;;;;;11.84;67.53;101457.47;5095298;28;20185;-69
2022/03/17 01:57:38;;;;;;;23.10;19.77;;;;;;;11.77;67.66;101457.69;5095209;28;20209;-69
2022/03/17 02:00:08;;;;;;;29.23;19.17;;;;;;;11.75;67.50;101460.38;5095179;28;20201;-68
2022/03/17 02:02:45;;;;;;;22.73;19.03;;;;;;;11.78;67.68;101455.03;5094706;28;20201;-68
2022/03/17 02:05:12;;;;;;;21.87;19.40;;;;;;;11.85;67.15;101451.31;5095251;28;20197;-68
2022/03/17 02:08:03;;;;;;;19.80;17.70;;;;;;;11.77;67.52;101449.84;5094997;28;20190;-68
2022/03/17 02:13:08;;;;;;;21.60;18.43;;;;;;;11.75;67.71;101462.16;5095284;28;20243;-68
2022/03/17 02:13:14;;;;;;;22.23;20.03;;;;;;;11.72;67.80;101455.25;5095592;28;20202;-68
2022/03/17 02:15:41;;;;;;;24.73;18.93;;;;;;;11.76;67.87;101461.25;5095161;28;20181;-68
2022/03/17 02:18:07;;;;;;;26.20;19.53;;;;;;;11.73;67.79;101459.59;5095107;28;20240;-68
2022/03/17 02:20:35;;;;;;;22.00;19.57;;;;;;;11.72;68.06;101457.88;5094912;28;20290;-68
2022/03/17 02:25:57;;;;;;;23.63;19.93;;;;;;;11.73;67.96;101461.34;5094979;28;20178;-68
2022/03/17 02:28:26;;;;;;;24.30;19.90;;;;;;;11.63;68.12;101460.78;5095294;28;20176;-68
2022/03/17 02:30:53;;;;;;;21.10;18.97;;;;;;;11.66;68.19;101462.47;5094489;28;20189;-68
2022/03/17 02:33:19;;;;;;;20.17;18.23;;;;;;;11.71;68.05;101455.28;5094403;28;20201;-69
2022/03/17 02:35:49;;;;;;;26.87;20.80;;;;;;;11.64;68.22;101449.38;5094702;28;20299;-69
2022/03/17 02:38:17;;;;;;;21.03;18.73;;;;;;;11.66;68.31;101452.84;5094685;28;20192;-69
2022/03/17 02:40:45;;;;;;;25.20;20.00;;;;;;;11.77;67.77;101442.81;5094679;28;20242;-69
2022/03/17 02:43:14;;;;;;;23.87;19.80;;;;;;;11.78;68.03;101455.03;5094197;28;20674;-69
2022/03/17 02:45:42;;;;;;;20.87;18.73;;;;;;;11.61;68.66;101449.50;5094288;28;20231;-69
2022/03/17 02:48:10;;;;;;;23.80;19.97;;;;;;;11.69;68.48;101451.88;5094166;28;20283;-69
2022/03/17 02:50:36;;;;;;;20.47;18.07;;;;;;;11.72;68.37;101447.38;5094140;28;20227;-69
2022/03/17 02:53:08;;;;;;;23.00;20.50;;;;;;;11.60;68.69;101445.16;5094321;28;20206;-68
2022/03/17 02:55:35;;;;;;;20.10;17.97;;;;;;;11.72;68.18;101442.13;5094100;28;20194;-68
2022/03/17 02:58:05;;;;;;;23.67;20.07;;;;;;;11.68;68.55;101448.38;5094616;28;20190;-68
2022/03/17 03:00:32;;;;;;;20.50;18.30;;;;;;;11.65;68.70;101445.88;5094008;28;20705;-68
2022/03/17 03:02:58;;;;;;;20.27;18.17;;;;;;;11.53;69.09;101444.50;5094411;28;20220;-69
2022/03/17 03:05:26;;;;;;;21.33;18.10;;;;;;;11.62;69.21;101451.22;5094492;28;20640;-69
2022/03/17 03:07:53;;;;;;;22.53;18.57;;;;;;;11.60;69.06;101453.03;5093931;28;20185;-69
2022/03/17 03:10:21;;;;;;;26.17;19.43;;;;;;;11.63;69.07;101452.91;5094151;28;20231;-69
2022/03/17 03:12:47;;;;;;;26.23;20.20;;;;;;;11.55;69.46;101455.81;5093913;28;20616;-69
2022/03/17 03:15:13;;;;;;;21.50;19.20;;;;;;;11.56;69.46;101459.28;5092955;28;20182;-69
2022/03/17 03:17:40;;;;;;;32.60;20.03;;;;;;;11.57;69.36;101463.63;5093712;28;20189;-69
2022/03/17 03:20:08;;;;;;;21.53;18.27;;;;;;;11.53;69.76;101457.63;5094121;28;20755;-69
2022/03/17 03:22:39;;;;;;;24.30;20.27;;;;;;;11.55;69.61;101465.44;5093734;28;20620;-69
2022/03/17 03:25:07;;;;;;;25.27;19.40;;;;;;;11.55;69.68;101473.31;5094206;28;20170;-69
2022/03/17 03:27:34;;;;;;;23.77;19.33;;;;;;;11.53;69.68;101473.38;5093624;28;20182;-69
2022/03/17 03:30:01;;;;;;;26.40;19.83;;;;;;;11.47;70.05;101477.94;5093833;28;20185;-69
2022/03/17 03:32:28;;;;;;;25.43;20.80;;;;;;;11.38;70.32;101478.25;5093404;28;20202;-69
2022/03/17 03:34:54;;;;;;;23.70;21.27;;;;;;;11.42;70.52;101480.72;5093753;28;20182;-69
2022/03/17 03:37:23;;;;;;;21.90;19.63;;;;;;;11.51;70.00;101479.59;5093740;28;20231;-69
2022/03/17 03:39:55;;;;;;;25.87;20.00;;;;;;;11.56;69.77;101475.03;5093666;28;20705;-69
2022/03/17 03:42:23;;;;;;;21.47;19.23;;;;;;;11.54;69.73;101471.59;5093342;28;20210;-68
2022/03/17 03:44:51;;;;;;;23.13;19.33;;;;;;;11.43;70.12;101478.94;5093229;28;20260;-68
2022/03/17 03:47:18;;;;;;;21.63;19.37;;;;;;;11.40;70.53;101485.16;5093936;28;20235;-68
2022/03/17 03:49:44;;;;;;;20.90;18.70;;;;;;;11.44;70.41;101501.66;5093398;28;20196;-68
2022/03/17 03:52:13;;;;;;;27.17;19.73;;;;;;;11.41;70.59;101504.38;5093452;28;20210;-68
2022/03/17 03:54:40;;;;;;;23.73;20.10;;;;;;;11.41;70.83;101512.25;5093210;28;20239;-68
2022/03/17 03:57:08;;;;;;;29.13;21.30;;;;;;;11.45;70.71;101519.13;5093803;28;20314;-68
2022/03/17 03:59:34;;;;;;;21.83;19.60;;;;;;;11.54;70.55;101516.19;5094098;28;20194;-68
2022/03/17 04:02:05;;;;;;;23.07;20.67;;;;;;;11.49;70.61;101518.09;5093265;28;20202;-68
2022/03/17 04:04:34;;;;;;;26.87;21.00;;;;;;;11.43;70.50;101523.53;5093127;28;20197;-68
2022/03/17 04:07:04;;;;;;;27.17;20.53;;;;;;;11.46;70.64;101523.44;5093410;28;20260;-68
2022/03/17 04:09:35;;;;;;;22.60;19.67;;;;;;;11.46;70.89;101523.44;5093154;28;20215;-69
2022/03/17 04:12:03;;;;;;;33.53;20.73;;;;;;;11.52;70.65;101533.75;5093089;28;20206;-69
2022/03/17 04:14:31;;;;;;;28.20;20.53;;;;;;;11.44;70.79;101534.00;5093106;28;20182;-69
2022/03/17 04:16:58;;;;;;;23.13;18.87;;;;;;;11.50;70.89;101541.66;5093122;28;20178;-69
2022/03/17 04:19:26;;;;;;;28.83;18.90;;;;;;;11.43;71.63;101547.13;5093026;28;20194;-69
2022/03/17 04:21:53;;;;;;;23.60;20.60;;;;;;;11.40;71.70;101550.72;5092868;28;20186;-69
2022/03/17 04:24:20;;;;;;;26.90;21.90;;;;;;;11.49;71.75;101550.41;5092941;28;20259;-69
2022/03/17 04:26:47;;;;;;;28.83;21.13;;;;;;;11.49;71.28;101555.66;5095687;28;20200;-68
2022/03/17 04:29:15;;;;;;;26.77;21.57;;;;;;;11.51;71.45;101553.00;5097472;28;20239;-68
2022/03/17 04:31:45;;;;;;;25.63;20.90;;;;;;;11.51;71.42;101563.50;5097321;28;20269;-68
2022/03/17 04:34:12;;;;;;;22.70;19.67;;;;;;;11.50;71.81;101561.75;5097028;28;20162;-69
2022/03/17 04:36:39;;;;;;;21.20;18.80;;;;;;;11.56;71.94;101566.81;5097155;28;20578;-69
2022/03/17 04:39:06;;;;;;;24.10;20.30;;;;;;;11.47;72.21;101570.59;5097078;28;20174;-68
2022/03/17 04:41:33;;;;;;;27.77;19.73;;;;;;;11.52;72.22;101573.94;5097082;28;20178;-68
2022/03/17 04:43:59;;;;;;;27.67;20.57;;;;;;;11.52;72.95;101583.56;5096614;28;20544;-68
2022/03/17 04:46:26;;;;;;;27.63;20.60;;;;;;;11.63;73.54;101581.44;5078461;28;20221;-68
2022/03/17 04:48:53;;;;;;;31.97;20.80;;;;;;;11.61;74.01;101588.53;5096679;28;20684;-68
2022/03/17 04:51:19;;;;;;;31.63;21.53;;;;;;;11.58;74.76;101594.72;5096403;28;20193;-68
2022/03/17 04:53:46;;;;;;;26.67;20.93;;;;;;;11.54;75.79;101600.13;5096374;28;20264;-68
2022/03/17 04:56:16;;;;;;;23.23;20.43;;;;;;;11.52;75.80;101604.56;5096369;28;20245;-68
2022/03/17 04:58:44;;;;;;;27.90;20.77;;;;;;;11.54;75.85;101613.22;5096334;28;20190;-68
2022/03/17 05:01:12;;;;;;;33.10;21.47;;;;;;;11.34;76.75;101624.31;5096327;28;20182;-68
2022/03/17 05:03:40;;;;;;;32.27;23.33;;;;;;;11.34;77.29;101626.06;5096124;28;20210;-68
2022/03/17 05:06:10;;;;;;;36.20;22.80;;;;;;;11.22;78.21;101628.19;5096431;28;20182;-68
2022/03/17 05:08:37;;;;;;;30.13;21.93;;;;;;;11.24;79.63;101628.97;5096731;28;20228;-68
2022/03/17 05:11:04;;;;;;;30.57;22.90;;;;;;;11.19;80.71;101635.25;5096645;28;20170;-68
2022/03/17 05:13:31;;;;;;;33.90;22.37;;;;;;;11.13;81.90;101638.91;5096093;28;20198;-68
2022/03/17 05:15:58;;;;;;;33.80;23.17;;;;;;;11.06;83.04;101649.63;5096212;28;20227;-68
2022/03/17 05:18:26;;;;;;;29.67;23.03;;;;;;;10.91;84.99;101661.38;5095900;28;20185;-68
2022/03/17 05:20:52;;;;;;;33.43;23.27;;;;;;;10.88;86.08;101658.84;5095878;28;20193;-68
2022/03/17 05:23:20;;;;;;;30.67;22.67;;;;;;;10.78;87.21;101666.09;5095984;28;20259;-68
2022/03/17 05:25:48;;;;;;;32.20;22.67;;;;;;;10.60;88.87;101672.69;5096111;28;20190;-68
2022/03/17 05:28:16;;;;;;;35.83;24.77;;;;;;;10.64;90.10;101669.06;5096102;28;20712;-68
2022/03/17 05:30:44;;;;;;;32.57;23.83;;;;;;;10.44;91.22;101677.47;5096039;28;20182;-68
2022/03/17 05:33:11;;;;;;;33.70;23.07;;;;;;;10.39;92.14;101683.72;5095626;28;20198;-68
2022/03/17 05:35:39;;;;;;;40.80;24.17;;;;;;;10.36;93.10;101697.75;5095903;28;20531;-68
2022/03/17 05:38:06;;;;;;;37.53;27.00;;;;;;;10.25;94.25;101706.75;5094862;28;20193;-68
2022/03/17 05:40:33;;;;;;;41.70;25.87;;;;;;;10.19;94.67;101703.34;5095640;28;20171;-68
2022/03/17 05:43:06;;;;;;;41.17;24.70;;;;;;;10.15;94.87;101714.78;5095463;28;20295;-68
2022/03/17 05:45:39;;;;;;;43.67;27.30;;;;;;;10.03;95.54;101728.16;5079110;28;20186;-68
2022/03/17 05:48:07;;;;;;;41.80;27.70;;;;;;;9.82;96.77;101732.09;5095395;28;20215;-68
2022/03/17 05:50:39;;;;;;;47.27;27.23;;;;;;;9.85;98.13;101733.78;5095619;28;20181;-68
2022/03/17 05:53:07;;;;;;;42.03;28.33;;;;;;;9.86;99.61;101746.00;5095684;28;20649;-69
2022/03/17 05:55:34;;;;;;;50.53;30.13;;;;;;;9.78;100.00;101747.88;5095568;28;20177;-70
2022/03/17 05:58:01;;;;;;;52.90;29.93;;;;;;;9.78;100.00;101743.50;5095241;28;20551;-70
2022/03/17 06:00:29;;;;;;;51.13;30.80;;;;;;;9.71;100.00;101743.69;5095425;28;20245;-70
2022/03/17 06:02:57;;;;;;;54.67;30.10;;;;;;;9.64;100.00;101749.06;5094971;28;20198;-70
2022/03/17 06:05:25;;;;;;;48.80;29.93;;;;;;;9.68;100.00;101764.69;5095297;28;20182;-70
2022/03/17 06:07:54;;;;;;;51.70;30.67;;;;;;;9.50;100.00;101772.00;5094920;28;20185;-70
2022/03/17 06:10:26;;;;;;;46.60;28.47;;;;;;;9.38;100.00;101780.09;5094971;28;20186;-70
2022/03/17 06:12:54;;;;;;;61.03;32.10;;;;;;;9.31;100.00;101788.94;5095450;28;20741;-70
2022/03/17 06:15:23;;;;;;;60.43;32.67;;;;;;;9.27;100.00;101789.88;5095417;28;20186;-70
2022/03/17 06:17:53;;;;;;;62.03;32.67;;;;;;;9.19;100.00;101799.59;5095078;28;20590;-70
2022/03/17 06:20:22;;;;;;;54.53;32.33;;;;;;;9.17;100.00;101796.16;5094826;28;20177;-70
2022/03/17 06:22:52;;;;;;;62.20;34.03;;;;;;;9.25;100.00;101812.56;5094688;28;20595;-70
2022/03/17 06:25:20;;;;;;;56.67;31.77;;;;;;;9.22;100.00;101812.63;5095393;28;20554;-70
2022/03/17 06:27:49;;;;;;;60.30;30.90;;;;;;;9.22;100.00;101825.69;5094912;28;20178;-70
2022/03/17 06:30:21;;;;;;;55.13;31.73;;;;;;;9.10;100.00;101840.69;5094565;28;20267;-71
2022/03/17 06:32:49;;;;;;;37.10;20.80;;;;;;;8.79;100.00;101855.16;5094768;28;20215;-72
2022/03/17 06:35:22;;;;;;;25.00;17.10;;;;;;;8.51;100.00;101857.31;5094782;28;20174;-72
2022/03/17 06:37:52;;;;;;;34.40;19.77;;;;;;;8.41;100.00;101866.13;5094761;28;20168;-72
2022/03/17 06:40:20;;;;;;;36.63;19.63;;;;;;;8.38;100.00;101880.09;5094351;28;20234;-72
2022/03/17 06:42:47;;;;;;;39.10;20.63;;;;;;;8.33;100.00;101892.28;5094250;28;20687;-71
2022/03/17 06:45:14;;;;;;;35.20;19.50;;;;;;;8.32;100.00;101897.53;5094462;28;20209;-71
2022/03/17 06:47:41;;;;;;;31.93;19.90;;;;;;;8.29;100.00;101908.91;5094246;28;20189;-71
2022/03/17 06:50:10;;;;;;;27.73;18.43;;;;;;;8.18;100.00;101911.63;5094069;28;20193;-72
2022/03/17 06:52:37;;;;;;;31.17;19.27;;;;;;;8.19;100.00;101917.69;5094122;28;20202;-72
2022/03/17 06:55:04;;;;;;;39.03;20.53;;;;;;;8.14;100.00;101917.75;5094118;28;20666;-72
2022/03/17 06:57:31;;;;;;;33.13;18.93;;;;;;;8.14;100.00;101925.56;5094455;28;20548;-72
2022/03/17 06:59:58;;;;;;;30.73;18.07;;;;;;;8.10;100.00;101936.06;5094279;28;20182;-72
2022/03/17 07:02:25;;;;;;;28.40;19.70;;;;;;;8.07;100.00;101944.78;5076074;28;20612;-72
2022/03/17 07:04:51;;;;;;;29.57;16.80;;;;;;;7.98;100.00;101953.56;5093955;28;20288;-72
2022/03/17 07:07:18;;;;;;;33.10;16.43;;;;;;;7.96;100.00;101954.47;5093844;28;20185;-72
2022/03/17 07:09:44;;;;;;;21.70;14.70;;;;;;;7.95;100.00;101966.66;5094614;28;20628;-72
2022/03/17 07:12:13;;;;;;;29.13;16.23;;;;;;;7.88;100.00;101962.38;5093949;28;20209;-72
2022/03/17 07:14:40;;;;;;;25.13;17.93;;;;;;;7.94;100.00;101972.75;5094030;28;20166;-72
2022/03/17 07:17:07;;;;;;;25.67;16.43;;;;;;;7.86;100.00;101978.91;5093784;28;20174;-72
2022/03/17 07:19:35;;;;;;;28.90;18.03;;;;;;;7.86;100.00;101979.81;5076408;28;20178;-71
2022/03/17 07:22:07;;;;;;;31.43;18.83;;;;;;;7.85;100.00;102001.50;5093747;28;20217;-71
2022/03/17 07:24:35;;;;;;;28.50;18.23;;;;;;;7.85;100.00;101998.91;5093555;28;20198;-72
2022/03/17 07:27:03;;;;;;;30.70;18.83;;;;;;;7.84;100.00;101996.31;5059023;28;20250;-72
2022/03/17 07:29:32;;;;;;;23.23;17.47;;;;;;;7.93;100.00;102007.53;5059249;28;20198;-72
2022/03/17 07:31:59;;;;;;;31.50;18.33;;;;;;;7.93;100.00;102007.53;5093479;28;20275;-71
2022/03/17 07:34:25;;;;;;;23.47;15.63;;;;;;;7.86;100.00;102021.53;5093421;28;20240;-71
2022/03/17 07:36:52;;;;;;;25.17;16.87;;;;;;;7.87;100.00;102035.41;5093435;28;20268;-71
2022/03/17 07:39:19;;;;;;;21.77;15.37;;;;;;;7.83;100.00;102038.91;5093467;28;20193;-71
2022/03/17 07:41:45;;;;;;;28.63;16.27;;;;;;;7.83;100.00;102049.34;5093422;28;20224;-72
2022/03/17 07:44:14;;;;;;;19.93;16.70;;;;;;;7.72;100.00;102052.06;5093297;28;20194;-71
2022/03/17 07:46:52;;;;;;;32.83;17.20;;;;;;;7.67;100.00;102053.81;5093607;28;20196;-71
2022/03/17 07:49:28;;;;;;;35.77;16.07;;;;;;;7.64;100.00;102059.03;5076091;28;20562;-71
2022/03/17 07:51:55;;;;;;;19.13;15.47;;;;;;;7.66;100.00;102066.00;5093183;28;20217;-70
2022/03/17 07:54:21;;;;;;;25.13;14.60;;;;;;;7.50;100.00;102071.31;5093566;28;20627;-71
2022/03/17 07:56:48;;;;;;;12.70;11.40;;;;;;;7.48;100.00;102070.47;5093111;28;20662;-71
2022/03/17 07:59:16;;;;;;;28.57;12.93;;;;;;;7.53;100.00;102087.81;5093191;28;20186;-71
2022/03/17 08:01:43;;;;;;;21.20;10.63;;;;;;;7.52;100.00;102080.00;5095507;28;20193;-71
2022/03/17 08:04:09;;;;;;;14.83;10.40;;;;;;;7.52;100.00;102100.84;5097595;28;20207;-71
2022/03/17 08:06:36;;;;;;;21.87;10.47;;;;;;;7.48;100.00;102110.41;5097853;28;20194;-71
2022/03/17 08:09:03;;;;;;;20.00;9.73;;;;;;;7.44;100.00;102106.97;5097236;28;20204;-71
2022/03/17 08:11:29;;;;;;;17.83;11.57;;;;;;;7.47;100.00;102115.66;5097712;28;20197;-71
2022/03/17 08:13:56;;;;;;;13.27;11.70;;;;;;;7.39;100.00;102120.91;5097082;28;20202;-71
2022/03/17 08:16:23;;;;;;;13.17;10.97;;;;;;;7.35;100.00;102113.97;5097728;28;20234;-71
2022/03/17 08:18:49;;;;;;;12.27;10.33;;;;;;;7.33;100.00;102129.59;5097584;28;20243;-71
2022/03/17 08:21:17;;;;;;;11.60;10.00;;;;;;;7.37;100.00;102141.75;5097019;28;20189;-71
2022/03/17 08:23:45;;;;;;;13.27;10.57;;;;;;;7.42;100.00;102139.97;5097183;28;20193;-70
2022/03/17 08:26:13;;;;;;;11.23;9.47;;;;;;;7.41;100.00;102146.06;5096942;28;20196;-70
2022/03/17 08:28:39;;;;;;;13.57;11.07;;;;;;;7.43;100.00;102146.94;5096970;28;20595;-70
2022/03/17 08:31:06;;;;;;;13.83;10.40;;;;;;;7.45;100.00;102153.00;5096816;28;20174;-70
2022/03/17 08:33:34;;;;;;;9.77;8.93;;;;;;;7.40;99.75;102146.94;5096777;28;20209;-70
2022/03/17 08:36:01;;;;;;;9.20;8.30;;;;;;;7.38;99.97;102159.13;5096744;28;20190;-70
2022/03/17 08:38:27;;;;;;;8.13;7.17;;;;;;;7.41;99.81;102161.69;5096766;28;20528;-71
2022/03/17 08:40:53;;;;;;;10.03;7.73;;;;;;;7.47;99.93;102171.22;5096611;28;20236;-70
2022/03/17 08:43:20;;;;;;;8.60;7.90;;;;;;;7.50;99.69;102181.66;5096592;28;20209;-71
2022/03/17 08:51:17;;;;;;;9.40;7.33;;;;;;;7.51;99.45;102199.03;5097009;28;20265;-70
2022/03/17 08:53:43;;;;;;;7.90;6.50;;;;;;;7.54;99.13;102203.34;5096385;28;20210;-70
2022/03/17 08:56:10;;;;;;;6.33;5.90;;;;;;;7.55;98.29;102205.94;5096294;28;20584;-70
2022/03/17 08:58:37;;;;;;;7.77;6.57;;;;;;;7.56;97.99;102218.09;5096369;28;20613;-70
2022/03/17 09:01:04;;;;;;;12.00;6.37;;;;;;;7.66;99.12;102213.72;5096505;28;20171;-70
2022/03/17 09:03:32;;;;;;;13.10;7.23;;;;;;;7.67;97.94;102225.88;5096192;28;20252;-70
2022/03/17 09:06:00;;;;;;;7.17;6.50;;;;;;;7.66;97.26;102225.00;5096677;28;20743;-70
2022/03/17 09:08:27;;;;;;;6.87;6.47;;;;;;;7.69;98.06;102229.34;5096154;28;20531;-70
2022/03/17 09:10:55;;;;;;;7.67;7.00;;;;;;;7.78;97.92;102226.66;5096340;28;20704;-70
2022/03/17 09:13:25;;;;;;;6.23;5.67;;;;;;;7.81;96.82;102234.50;5095161;28;20210;-70
2022/03/17 09:15:53;;;;;;;6.03;5.83;;;;;;;7.86;97.58;102237.94;5096045;28;20590;-70
2022/03/17 09:18:21;;;;;;;6.33;5.43;;;;;;;7.82;96.77;102241.44;5096202;28;20567;-70
2022/03/17 09:20:49;;;;;;;5.53;4.77;;;;;;;7.80;96.37;102242.31;5096290;28;20202;-70
2022/03/17 09:23:16;;;;;;;6.17;5.53;;;;;;;7.71;95.60;102251.03;5096037;28;20220;-70
2022/03/17 09:25:43;;;;;;;6.83;6.20;;;;;;;7.77;95.67;102260.56;5096122;28;20559;-70
2022/03/17 09:28:09;;;;;;;5.20;4.90;;;;;;;7.70;96.21;102257.13;5095825;28;20182;-70
2022/03/17 09:30:37;;;;;;;6.83;6.17;;;;;;;7.73;95.40;102263.22;5095782;28;20185;-70
2022/03/17 09:33:05;;;;;;;6.70;6.30;;;;;;;7.78;94.99;102273.59;5095741;28;20296;-70
2022/03/17 09:35:34;;;;;;;11.13;6.70;;;;;;;7.75;95.39;102267.56;5095551;28;20214;-70
2022/03/17 09:38:02;;;;;;;9.07;6.90;;;;;;;7.83;95.69;102269.25;5077812;28;20193;-70
2022/03/17 09:40:28;;;;;;;6.00;5.70;;;;;;;7.90;96.01;102272.69;5095579;28;20194;-70
2022/03/17 09:43:18;;;;;;;5.67;5.13;;;;;;;7.90;95.16;102281.38;5077939;28;20206;-70
2022/03/17 09:45:42;;;;;;;13.23;6.63;;;;;;;7.84;95.43;102281.41;5095366;28;20210;-70
2022/03/17 09:48:11;;;;;;;6.43;5.93;;;;;;;7.72;96.40;102286.69;5095682;28;20247;-70
2022/03/17 09:50:39;;;;;;;6.23;5.63;;;;;;;7.64;96.42;102291.03;5095571;28;20206;-70
2022/03/17 09:53:06;;;;;;;7.50;6.77;;;;;;;7.65;96.49;102300.63;5095284;28;20764;-70
2022/03/17 09:55:34;;;;;;;6.57;6.23;;;;;;;7.60;97.84;102302.38;5095509;28;20553;-70
2022/03/17 09:58:03;;;;;;;6.57;6.20;;;;;;;7.60;97.49;102302.38;5095125;28;20248;-70
2022/03/17 10:00:48;;;;;;;8.13;7.47;;;;;;;7.56;98.26;102316.28;5095424;28;20178;-70
2022/03/17 10:03:17;;;;;;;8.90;5.70;;;;;;;7.44;97.57;102318.06;5095050;28;20215;-70
2022/03/17 10:05:45;;;;;;;5.57;5.17;;;;;;;7.48;98.04;102331.06;5095039;28;20206;-70
2022/03/17 10:08:20;;;;;;;5.80;5.40;;;;;;;7.42;97.47;102325.00;5095259;28;20182;-70
2022/03/17 10:10:49;;;;;;;5.30;4.90;;;;;;;7.40;97.56;102331.94;5077309;28;20205;-70
2022/03/17 10:13:18;;;;;;;10.20;4.83;;;;;;;7.48;98.26;102339.75;5095082;28;20205;-69
2022/03/17 10:15:49;;;;;;;3.67;3.47;;;;;;;7.49;96.70;102343.22;5094845;28;20601;-69
2022/03/17 10:18:25;;;;;;;8.07;4.27;;;;;;;7.54;96.18;102346.69;5095413;28;20185;-69
2022/03/17 10:21:16;;;;;;;4.00;3.70;;;;;;;7.61;95.24;102362.31;5094565;28;20243;-70
2022/03/17 10:23:48;;;;;;;3.47;3.17;;;;;;;7.79;95.17;102356.19;5094278;28;20214;-70
2022/03/17 10:26:35;;;;;;;4.03;3.53;;;;;;;7.93;95.25;102359.63;5095178;28;20190;-70
2022/03/17 10:29:17;;;;;;;3.40;3.20;;;;;;;7.96;93.90;102369.16;5094613;28;20181;-70
2022/03/17 10:32:01;;;;;;;2.23;2.23;;;;;;;8.00;92.77;102368.25;5095033;28;20185;-70
2022/03/17 10:34:33;;;;;;;3.57;3.27;;;;;;;8.02;91.98;102384.78;5095094;28;20165;-70
2022/03/17 10:37:24;;;;;;;6.93;3.27;;;;;;;8.07;93.16;102397.78;5094761;28;20182;-70
2022/03/17 10:39:53;;;;;;;10.43;3.27;;;;;;;8.06;91.67;102399.53;5089356;28;20585;-70
2022/03/17 10:42:25;;;;;;;5.50;3.43;;;;;;;7.96;90.15;102396.09;5094603;28;20216;-70
2022/03/17 10:45:05;;;;;;;5.70;3.10;;;;;;;7.94;91.29;102404.81;5094241;28;20224;-70
2022/03/17 10:47:34;;;;;;;5.00;3.03;;;;;;;7.98;90.45;102414.34;5095159;28;20210;-70
2022/03/17 10:50:14;;;;;;;2.60;2.43;;;;;;;8.01;90.78;102414.34;5094506;28;20178;-70
2022/03/17 10:52:52;;;;;;;3.93;3.30;;;;;;;8.02;89.24;102416.09;5094462;28;20292;-70
2022/03/17 10:55:21;;;;;;;3.43;2.77;;;;;;;8.05;89.11;102423.88;5094169;28;20528;-70
2022/03/17 10:57:49;;;;;;;2.60;2.60;;;;;;;8.11;89.59;102425.63;5094725;28;20569;-70
2022/03/17 11:00:21;;;;;;;2.07;1.97;;;;;;;8.16;89.38;102434.31;5093993;28;20182;-71
2022/03/17 11:02:49;;;;;;;5.87;2.50;;;;;;;8.15;90.42;102430.81;5094135;28;20687;-70
2022/03/17 11:05:20;;;;;;;4.63;2.30;;;;;;;8.05;87.89;102436.06;5093886;28;20196;-70
2022/03/17 11:07:46;;;;;;;4.87;2.80;;;;;;;8.08;87.36;102438.69;5094134;28;20174;-69
2022/03/17 11:10:15;;;;;;;2.60;2.40;;;;;;;8.11;87.37;102444.75;5094477;28;20209;-70
2022/03/17 11:12:45;;;;;;;4.77;2.60;;;;;;;8.19;87.95;102449.94;5075995;28;20263;-69
2022/03/17 11:15:13;;;;;;;9.83;2.83;;;;;;;8.26;88.64;102456.88;5094389;28;20237;-69
2022/03/17 11:17:46;;;;;;;3.47;2.40;;;;;;;8.36;87.92;102450.78;5093838;28;20185;-69
2022/03/17 11:20:18;;;;;;;3.40;2.83;;;;;;;8.23;86.54;102456.91;5093643;28;20696;-70
2022/03/17 11:23:24;;;;;;;5.53;1.90;;;;;;;8.38;88.54;102456.84;5093533;28;20214;-70
2022/03/17 11:25:57;;;;;;;4.17;2.70;;;;;;;8.27;86.41;102454.25;5094039;28;20250;-70
2022/03/17 11:28:30;;;;;;;7.90;2.70;;;;;;;8.22;87.83;102460.38;5093822;28;20687;-70
2022/03/17 11:31:02;;;;;;;8.77;2.83;;;;;;;8.17;88.12;102467.34;5094156;28;20590;-70